Terminal Aerodrome Forecast
Issued by NWS Twin Cities, MN

Home | Current Version | Previous Version | Graphics & Text | Print | Product List | Glossary On
Versions: 1 2 3 4 5 6 7 8 9 10 11 12 13 14 15 16 17 18 19 20 21 22 23 24 25 26 27 28 29
635
FTUS43 KMPX 071726
TAFMSP
TAF
KMSP 071726Z 0718/0824 27018G28KT P6SM -SN SCT020 BKN030 OVC040
     FM080300 28016G22KT 4SM -SN BR OVC020
     FM081500 32018G24KT 4SM -SN BR OVC025=

USA.gov is the U.S. government's official web portal to all federal, state and local government web resources and services.